Austin Reinauer — WCX8055 — position and weather

sailwx.info

Track history (hours):
 
Tides and Currents Weather Stations Pressure Air Temp Water Temp Dewpoint Dewpoint Depression Visibility Wind Speed Wind Dir Waves Ship Positions

Austin Reinauer

Owner: REINAUER TRANSPORTATION CO, LP, STATEN ISLAND, NY. More information available from US FCC via Universal Licensing System and Coast Guard Vessel Documentation Center.

Last reported at 2016-May-25 04:30 UTC. Time now 2016-May-25 07:14 UTC.
Position N 41°12' W 072°50'.

Length 33 m; draft 6.7 m.

Type: Tanker. MMSI: 366739920.

Date/timePositionNaut miles runAvg speedWind from/ knotsBaromVisibWave heightAir tempDewpointWater temp
2016-May-25 04:30N 41°12' W 072°50'8 8.7
2016-May-25 03:33N 41°10' W 072°40'1010.0
2016-May-25 02:33N 41°10' W 072°27'1010.5
2016-May-25 01:33N 41°13' W 072°13'43 8.5
2016-May-24 20:34N 41°30' W 071°21'1110.8
2016-May-24 19:33N 41°39' W 071°14'2 2.0
2016-May-24 18:33N 41°40' W 071°12'0 0.0
2016-May-24 17:34N 41°40' W 071°12'0 0.0
2016-May-24 16:33N 41°40' W 071°12'0 0.0
2016-May-24 15:33N 41°40' W 071°12'0 0.0
2016-May-24 14:33N 41°40' W 071°12'0 0.0
2016-May-24 13:33N 41°40' W 071°12'0 0.0
2016-May-24 12:34N 41°40' W 071°12'0 0.0
2016-May-24 11:33N 41°40' W 071°12'0 0.0
2016-May-24 10:33N 41°40' W 071°12'0 0.0
2016-May-24 09:33N 41°40' W 071°12'0 0.0
2016-May-24 08:33N 41°40' W 071°12'0 0.0
2016-May-24 07:33N 41°40' W 071°12'0 0.0
2016-May-24 06:33N 41°40' W 071°12'0 0.1
2016-May-24 05:33N 41°40' W 071°12'5 4.9
2016-May-24 04:32N 41°37' W 071°17'9 9.0
2016-May-24 03:34N 41°45' W 071°22'2 1.9
2016-May-24 02:33N 41°47' W 071°22'0 0.0
2016-May-24 01:33N 41°47' W 071°22'0 0.0
2016-May-24 00:33N 41°47' W 071°22'0 0.0
2016-May-23 23:33N 41°47' W 071°22'0 0.0
2016-May-23 22:33N 41°47' W 071°22'0 0.0
2016-May-23 21:33N 41°47' W 071°22'0 0.0
2016-May-23 20:34N 41°47' W 071°22'0 0.0
2016-May-23 19:33N 41°47' W 071°22'0 0.0
2016-May-23 18:33N 41°47' W 071°22'0 0.0
2016-May-23 17:33N 41°47' W 071°22'0 0.0
2016-May-23 16:33N 41°47' W 071°22'0 0.0
2016-May-23 15:33N 41°47' W 071°22'0 0.0
2016-May-23 14:33N 41°47' W 071°22'0 0.2
2016-May-23 13:34N 41°47' W 071°22'42 7.0
2016-May-23 07:33N 41°14' W 071°58'1110.7
2016-May-23 06:33N 41°14' W 072°12'1110.6
2016-May-23 05:33N 41°10' W 072°25'75 8.1
2016-May-22 20:20N 40°45' W 073°58'4 4.9
2016-May-22 19:34N 40°41' W 074°01'8 7.1
2016-May-22 18:22N 40°39' W 074°11'1 0.3
2016-May-22 14:33N 40°38' W 074°12'0 0.0
2016-May-22 05:30N 40°38' W 074°12'0 0.0
2016-May-22 04:25N 40°38' W 074°12'0 0.0
2016-May-22 03:27N 40°38' W 074°12'0 0.0
2016-May-22 02:32N 40°38' W 074°12'0 0.0
2016-May-22 01:33N 40°38' W 074°12'0 0.0
2016-May-22 00:33N 40°38' W 074°12'0 0.0
2016-May-21 23:33N 40°38' W 074°12'0 0.0
2016-May-21 22:33N 40°38' W 074°12'0 0.0
2016-May-21 21:31N 40°38' W 074°12'0 0.0
2016-May-21 20:06N 40°38' W 074°12'0 0.1
2016-May-21 19:33N 40°38' W 074°12'8 7.7
2016-May-21 18:33N 40°40' W 074°03'5110.3
2016-May-21 13:33N 41°07' W 073°04'40 1.3
2016-May-20 08:04N 40°48' W 073°50'4 7.4
2016-May-20 07:33N 40°47' W 073°55'5 5.1
2016-May-20 06:34N 40°43' W 073°58'5 5.3
2016-May-20 05:33N 40°39' W 074°04'7 6.9
2016-May-20 04:33N 40°37' W 074°12'1 0.8
2016-May-20 03:32N 40°36' W 074°12'0 0.0
2016-May-20 02:31N 40°36' W 074°12'0 0.0
2016-May-20 00:33N 40°36' W 074°12'0 0.0
2016-May-19 23:06N 40°36' W 074°12'0 0.0
2016-May-19 22:16N 40°36' W 074°12'1 0.0
2016-May-18 18:05N 40°37' W 074°12'4 6.8
2016-May-18 17:33N 40°38' W 074°08'3 2.3
2016-May-18 16:26N 40°39' W 074°11'3 3.0
2016-May-18 15:32N 40°36' W 074°12'0 0.1
2016-May-18 14:34N 40°36' W 074°12'3 3.2
2016-May-18 13:33N 40°39' W 074°10'5 5.2
2016-May-18 12:33N 40°40' W 074°03'0 0.4
2016-May-18 11:34N 40°40' W 074°03'0 0.0
2016-May-18 10:33N 40°40' W 074°03'0 0.1
2016-May-18 09:34N 40°40' W 074°03'0 0.1
2016-May-18 08:34N 40°40' W 074°02'0 0.1
2016-May-18 07:33N 40°40' W 074°03'0 0.0
2016-May-18 06:33N 40°40' W 074°03'6 6.0
2016-May-18 05:33N 40°45' W 073°58'5310.0
2016-May-18 00:14N 41°11' W 072°57'54 1.7
2016-May-16 16:32N 40°43' W 073°58'5 4.7
2016-May-16 15:33N 40°40' W 074°02'0 0.0
2016-May-16 14:34N 40°40' W 074°02'0 0.0
2016-May-16 13:33N 40°40' W 074°02'0 0.0
2016-May-16 12:33N 40°40' W 074°02'0 0.1
2016-May-16 11:33N 40°40' W 074°02'2 1.6
2016-May-16 10:33N 40°39' W 074°04'3 2.5
2016-May-16 09:34N 40°39' W 074°07'0 0.0
2016-May-16 08:33N 40°39' W 074°07'0 0.0
2016-May-16 07:33N 40°39' W 074°07'0 0.0
2016-May-16 06:33N 40°39' W 074°07'0 0.0
2016-May-16 05:34N 40°39' W 074°07'0 0.0
2016-May-16 04:33N 40°39' W 074°07'0 0.0
2016-May-16 03:32N 40°39' W 074°07'0 0.0
2016-May-16 02:33N 40°39' W 074°07'0 0.0
2016-May-16 01:33N 40°39' W 074°07'0 0.0
2016-May-16 00:33N 40°39' W 074°07'0 0.0
2016-May-15 23:33N 40°39' W 074°07'0 0.0
2016-May-15 22:33N 40°39' W 074°07'3 3.3
2016-May-15 21:33N 40°40' W 074°03'1 1.4
2016-May-15 20:31N 40°40' W 074°01'0 0.0
2016-May-15 19:33N 40°40' W 074°01'0 0.1
2016-May-15 18:33N 40°40' W 074°01'0 0.0
2016-May-15 17:34N 40°40' W 074°01'0 0.0
2016-May-15 16:33N 40°40' W 074°01'4 0.5
2016-May-15 08:33N 40°39' W 074°06'4 3.5
2016-May-15 07:31N 40°40' W 074°02'0 0.0
2016-May-15 06:31N 40°40' W 074°02'0 0.0
2016-May-15 05:31N 40°40' W 074°02'0 0.0
2016-May-15 04:31N 40°40' W 074°02'  
Track history (hours):
 
Tides and Currents Weather Stations Pressure Air Temp Water Temp Dewpoint Dewpoint Depression Visibility Wind Speed Wind Dir Waves Ship Positions

Austin Reinauer

Owner: REINAUER TRANSPORTATION CO, LP, STATEN ISLAND, NY. More information available from US FCC via Universal Licensing System and Coast Guard Vessel Documentation Center.

Last reported at 2016-May-25 04:30 UTC. Time now 2016-May-25 07:14 UTC.
Position N 41°12' W 072°50'.

Length 33 m; draft 6.7 m.

Type: Tanker. MMSI: 366739920.

Date/timePositionNaut miles runAvg speedWind from/ knotsBaromVisibWave heightAir tempDewpointWater temp
2016-May-25 04:30N 41°12' W 072°50'8 8.7
2016-May-25 03:33N 41°10' W 072°40'1010.0
2016-May-25 02:33N 41°10' W 072°27'1010.5
2016-May-25 01:33N 41°13' W 072°13'43 8.5
2016-May-24 20:34N 41°30' W 071°21'1110.8
2016-May-24 19:33N 41°39' W 071°14'2 2.0
2016-May-24 18:33N 41°40' W 071°12'0 0.0
2016-May-24 17:34N 41°40' W 071°12'0 0.0
2016-May-24 16:33N 41°40' W 071°12'0 0.0
2016-May-24 15:33N 41°40' W 071°12'0 0.0
2016-May-24 14:33N 41°40' W 071°12'0 0.0
2016-May-24 13:33N 41°40' W 071°12'0 0.0
2016-May-24 12:34N 41°40' W 071°12'0 0.0
2016-May-24 11:33N 41°40' W 071°12'0 0.0
2016-May-24 10:33N 41°40' W 071°12'0 0.0
2016-May-24 09:33N 41°40' W 071°12'0 0.0
2016-May-24 08:33N 41°40' W 071°12'0 0.0
2016-May-24 07:33N 41°40' W 071°12'0 0.0
2016-May-24 06:33N 41°40' W 071°12'0 0.1
2016-May-24 05:33N 41°40' W 071°12'5 4.9
2016-May-24 04:32N 41°37' W 071°17'9 9.0
2016-May-24 03:34N 41°45' W 071°22'2 1.9
2016-May-24 02:33N 41°47' W 071°22'0 0.0
2016-May-24 01:33N 41°47' W 071°22'0 0.0
2016-May-24 00:33N 41°47' W 071°22'0 0.0
2016-May-23 23:33N 41°47' W 071°22'0 0.0
2016-May-23 22:33N 41°47' W 071°22'0 0.0
2016-May-23 21:33N 41°47' W 071°22'0 0.0
2016-May-23 20:34N 41°47' W 071°22'0 0.0
2016-May-23 19:33N 41°47' W 071°22'0 0.0
2016-May-23 18:33N 41°47' W 071°22'0 0.0
2016-May-23 17:33N 41°47' W 071°22'0 0.0
2016-May-23 16:33N 41°47' W 071°22'0 0.0
2016-May-23 15:33N 41°47' W 071°22'0 0.0
2016-May-23 14:33N 41°47' W 071°22'0 0.2
2016-May-23 13:34N 41°47' W 071°22'42 7.0
2016-May-23 07:33N 41°14' W 071°58'1110.7
2016-May-23 06:33N 41°14' W 072°12'1110.6
2016-May-23 05:33N 41°10' W 072°25'75 8.1
2016-May-22 20:20N 40°45' W 073°58'4 4.9
2016-May-22 19:34N 40°41' W 074°01'8 7.1
2016-May-22 18:22N 40°39' W 074°11'1 0.3
2016-May-22 14:33N 40°38' W 074°12'0 0.0
2016-May-22 05:30N 40°38' W 074°12'0 0.0
2016-May-22 04:25N 40°38' W 074°12'0 0.0
2016-May-22 03:27N 40°38' W 074°12'0 0.0
2016-May-22 02:32N 40°38' W 074°12'0 0.0
2016-May-22 01:33N 40°38' W 074°12'0 0.0
2016-May-22 00:33N 40°38' W 074°12'0 0.0
2016-May-21 23:33N 40°38' W 074°12'0 0.0
2016-May-21 22:33N 40°38' W 074°12'0 0.0
2016-May-21 21:31N 40°38' W 074°12'0 0.0
2016-May-21 20:06N 40°38' W 074°12'0 0.1
2016-May-21 19:33N 40°38' W 074°12'8 7.7
2016-May-21 18:33N 40°40' W 074°03'5110.3
2016-May-21 13:33N 41°07' W 073°04'40 1.3
2016-May-20 08:04N 40°48' W 073°50'4 7.4
2016-May-20 07:33N 40°47' W 073°55'5 5.1
2016-May-20 06:34N 40°43' W 073°58'5 5.3
2016-May-20 05:33N 40°39' W 074°04'7 6.9
2016-May-20 04:33N 40°37' W 074°12'1 0.8
2016-May-20 03:32N 40°36' W 074°12'0 0.0
2016-May-20 02:31N 40°36' W 074°12'0 0.0
2016-May-20 00:33N 40°36' W 074°12'0 0.0
2016-May-19 23:06N 40°36' W 074°12'0 0.0
2016-May-19 22:16N 40°36' W 074°12'1 0.0
2016-May-18 18:05N 40°37' W 074°12'4 6.8
2016-May-18 17:33N 40°38' W 074°08'3 2.3
2016-May-18 16:26N 40°39' W 074°11'3 3.0
2016-May-18 15:32N 40°36' W 074°12'0 0.1
2016-May-18 14:34N 40°36' W 074°12'3 3.2
2016-May-18 13:33N 40°39' W 074°10'5 5.2
2016-May-18 12:33N 40°40' W 074°03'0 0.4
2016-May-18 11:34N 40°40' W 074°03'0 0.0
2016-May-18 10:33N 40°40' W 074°03'0 0.1
2016-May-18 09:34N 40°40' W 074°03'0 0.1
2016-May-18 08:34N 40°40' W 074°02'0 0.1
2016-May-18 07:33N 40°40' W 074°03'0 0.0
2016-May-18 06:33N 40°40' W 074°03'6 6.0
2016-May-18 05:33N 40°45' W 073°58'5310.0
2016-May-18 00:14N 41°11' W 072°57'54 1.7
2016-May-16 16:32N 40°43' W 073°58'5 4.7
2016-May-16 15:33N 40°40' W 074°02'0 0.0
2016-May-16 14:34N 40°40' W 074°02'0 0.0
2016-May-16 13:33N 40°40' W 074°02'0 0.0
2016-May-16 12:33N 40°40' W 074°02'0 0.1
2016-May-16 11:33N 40°40' W 074°02'2 1.6
2016-May-16 10:33N 40°39' W 074°04'3 2.5
2016-May-16 09:34N 40°39' W 074°07'0 0.0
2016-May-16 08:33N 40°39' W 074°07'0 0.0
2016-May-16 07:33N 40°39' W 074°07'0 0.0
2016-May-16 06:33N 40°39' W 074°07'0 0.0
2016-May-16 05:34N 40°39' W 074°07'0 0.0
2016-May-16 04:33N 40°39' W 074°07'0 0.0
2016-May-16 03:32N 40°39' W 074°07'0 0.0
2016-May-16 02:33N 40°39' W 074°07'0 0.0
2016-May-16 01:33N 40°39' W 074°07'0 0.0
2016-May-16 00:33N 40°39' W 074°07'0 0.0
2016-May-15 23:33N 40°39' W 074°07'0 0.0
2016-May-15 22:33N 40°39' W 074°07'3 3.3
2016-May-15 21:33N 40°40' W 074°03'1 1.4
2016-May-15 20:31N 40°40' W 074°01'0 0.0
2016-May-15 19:33N 40°40' W 074°01'0 0.1
2016-May-15 18:33N 40°40' W 074°01'0 0.0
2016-May-15 17:34N 40°40' W 074°01'0 0.0
2016-May-15 16:33N 40°40' W 074°01'4 0.5
2016-May-15 08:33N 40°39' W 074°06'4 3.5
2016-May-15 07:31N 40°40' W 074°02'0 0.0
2016-May-15 06:31N 40°40' W 074°02'0 0.0
2016-May-15 05:31N 40°40' W 074°02'0 0.0
2016-May-15 04:31N 40°40' W 074°02'  

Dump ship's entire track history